sensor_id;sensor_type;location;lat;lon;timestamp;P1;durP1;ratioP1;P2;durP2;ratioP2
45792;SDS011;31495;42.740;22.908;2022-07-19T00:00:13;3.55;;;1.92;;
45792;SDS011;31495;42.740;22.908;2022-07-19T00:01:15;6.63;;;2.17;;
45792;SDS011;31495;42.740;22.908;2022-07-19T00:02:14;5.53;;;1.75;;
45792;SDS011;31495;42.740;22.908;2022-07-19T00:03:14;4.93;;;1.90;;
45792;SDS011;31495;42.740;22.908;2022-07-19T00:04:16;3.95;;;1.80;;
45792;SDS011;31495;42.740;22.908;2022-07-19T00:05:15;6.38;;;1.92;;
45792;SDS011;31495;42.740;22.908;2022-07-19T00:06:15;6.25;;;2.10;;
45792;SDS011;31495;42.740;22.908;2022-07-19T00:07:14;8.85;;;2.10;;
45792;SDS011;31495;42.740;22.908;2022-07-19T00:08:14;4.43;;;2.47;;
45792;SDS011;31495;42.740;22.908;2022-07-19T00:09:13;6.30;;;2.30;;
45792;SDS011;31495;42.740;22.908;2022-07-19T00:10:13;5.30;;;1.98;;
45792;SDS011;31495;42.740;22.908;2022-07-19T00:11:14;2.88;;;1.75;;
45792;SDS011;31495;42.740;22.908;2022-07-19T00:12:14;6.03;;;1.70;;
45792;SDS011;31495;42.740;22.908;2022-07-19T00:13:14;4.07;;;1.85;;
45792;SDS011;31495;42.740;22.908;2022-07-19T00:14:13;3.45;;;2.10;;
45792;SDS011;31495;42.740;22.908;2022-07-19T00:15:14;4.15;;;1.90;;
45792;SDS011;31495;42.740;22.908;2022-07-19T00:16:14;5.05;;;1.98;;
45792;SDS011;31495;42.740;22.908;2022-07-19T00:17:14;3.25;;;1.88;;
45792;SDS011;31495;42.740;22.908;2022-07-19T00:18:14;7.95;;;1.80;;
45792;SDS011;31495;42.740;22.908;2022-07-19T00:19:14;2.28;;;1.60;;
45792;SDS011;31495;42.740;22.908;2022-07-19T00:20:17;5.60;;;2.83;;
45792;SDS011;31495;42.740;22.908;2022-07-19T00:21:19;2.47;;;1.75;;
45792;SDS011;31495;42.740;22.908;2022-07-19T00:22:19;3.35;;;1.75;;
45792;SDS011;31495;42.740;22.908;2022-07-19T00:23:18;4.93;;;1.90;;
45792;SDS011;31495;42.740;22.908;2022-07-19T00:24:18;4.50;;;2.00;;
45792;SDS011;31495;42.740;22.908;2022-07-19T00:25:18;6.47;;;1.90;;
45792;SDS011;31495;42.740;22.908;2022-07-19T00:26:17;4.05;;;1.90;;
45792;SDS011;31495;42.740;22.908;2022-07-19T00:27:16;6.72;;;1.90;;
45792;SDS011;31495;42.740;22.908;2022-07-19T00:28:16;3.47;;;1.73;;
45792;SDS011;31495;42.740;22.908;2022-07-19T00:29:15;3.58;;;1.70;;
45792;SDS011;31495;42.740;22.908;2022-07-19T00:30:15;2.83;;;1.38;;
45792;SDS011;31495;42.740;22.908;2022-07-19T00:31:15;3.13;;;2.00;;
45792;SDS011;31495;42.740;22.908;2022-07-19T00:32:14;5.18;;;1.92;;
45792;SDS011;31495;42.740;22.908;2022-07-19T00:33:13;4.82;;;1.77;;
45792;SDS011;31495;42.740;22.908;2022-07-19T00:34:13;4.15;;;1.63;;
45792;SDS011;31495;42.740;22.908;2022-07-19T00:35:14;3.55;;;1.75;;
45792;SDS011;31495;42.740;22.908;2022-07-19T00:36:14;5.10;;;1.60;;
45792;SDS011;31495;42.740;22.908;2022-07-19T00:37:14;5.20;;;2.28;;
45792;SDS011;31495;42.740;22.908;2022-07-19T00:38:13;2.55;;;1.63;;
45792;SDS011;31495;42.740;22.908;2022-07-19T00:39:13;5.10;;;2.15;;
45792;SDS011;31495;42.740;22.908;2022-07-19T00:40:13;4.70;;;1.70;;
45792;SDS011;31495;42.740;22.908;2022-07-19T00:41:13;3.05;;;2.30;;
45792;SDS011;31495;42.740;22.908;2022-07-19T00:42:13;4.18;;;2.25;;
45792;SDS011;31495;42.740;22.908;2022-07-19T00:43:13;7.00;;;2.28;;
45792;SDS011;31495;42.740;22.908;2022-07-19T00:44:13;4.47;;;1.58;;
45792;SDS011;31495;42.740;22.908;2022-07-19T00:45:12;3.40;;;1.60;;
45792;SDS011;31495;42.740;22.908;2022-07-19T00:46:13;5.47;;;1.90;;
45792;SDS011;31495;42.740;22.908;2022-07-19T00:48:14;3.95;;;1.90;;
45792;SDS011;31495;42.740;22.908;2022-07-19T00:49:14;4.50;;;2.33;;
45792;SDS011;31495;42.740;22.908;2022-07-19T00:50:13;6.78;;;2.15;;
45792;SDS011;31495;42.740;22.908;2022-07-19T00:51:13;5.35;;;2.25;;
45792;SDS011;31495;42.740;22.908;2022-07-19T00:52:14;4.97;;;2.25;;
45792;SDS011;31495;42.740;22.908;2022-07-19T00:53:15;3.15;;;1.92;;
45792;SDS011;31495;42.740;22.908;2022-07-19T00:54:16;3.97;;;1.90;;
45792;SDS011;31495;42.740;22.908;2022-07-19T00:55:20;3.42;;;1.98;;
45792;SDS011;31495;42.740;22.908;2022-07-19T00:56:21;3.63;;;1.90;;
45792;SDS011;31495;42.740;22.908;2022-07-19T00:57:24;3.80;;;2.38;;
45792;SDS011;31495;42.740;22.908;2022-07-19T00:58:23;4.07;;;2.17;;
45792;SDS011;31495;42.740;22.908;2022-07-19T00:59:24;5.00;;;1.80;;
45792;SDS011;31495;42.740;22.908;2022-07-19T01:00:26;4.57;;;1.92;;
45792;SDS011;31495;42.740;22.908;2022-07-19T01:01:27;3.97;;;2.42;;
45792;SDS011;31495;42.740;22.908;2022-07-19T01:02:27;4.65;;;2.08;;
45792;SDS011;31495;42.740;22.908;2022-07-19T01:03:28;3.80;;;2.13;;
45792;SDS011;31495;42.740;22.908;2022-07-19T01:04:28;5.32;;;2.10;;
45792;SDS011;31495;42.740;22.908;2022-07-19T01:05:28;5.85;;;2.30;;
45792;SDS011;31495;42.740;22.908;2022-07-19T01:06:27;3.42;;;1.90;;
45792;SDS011;31495;42.740;22.908;2022-07-19T01:07:27;7.15;;;2.13;;
45792;SDS011;31495;42.740;22.908;2022-07-19T01:08:26;4.10;;;1.70;;
45792;SDS011;31495;42.740;22.908;2022-07-19T01:09:25;2.55;;;2.25;;
45792;SDS011;31495;42.740;22.908;2022-07-19T01:10:25;3.95;;;2.45;;
45792;SDS011;31495;42.740;22.908;2022-07-19T01:11:26;3.28;;;2.22;;
45792;SDS011;31495;42.740;22.908;2022-07-19T01:12:25;3.83;;;2.10;;
45792;SDS011;31495;42.740;22.908;2022-07-19T01:13:25;4.20;;;2.10;;
45792;SDS011;31495;42.740;22.908;2022-07-19T01:14:24;7.82;;;2.08;;
45792;SDS011;31495;42.740;22.908;2022-07-19T01:15:25;3.10;;;1.95;;
45792;SDS011;31495;42.740;22.908;2022-07-19T01:16:27;6.03;;;2.03;;
45792;SDS011;31495;42.740;22.908;2022-07-19T01:17:26;3.35;;;2.30;;
45792;SDS011;31495;42.740;22.908;2022-07-19T01:18:27;5.05;;;2.20;;
45792;SDS011;31495;42.740;22.908;2022-07-19T01:19:27;9.43;;;2.38;;
45792;SDS011;31495;42.740;22.908;2022-07-19T01:20:26;5.95;;;2.47;;
45792;SDS011;31495;42.740;22.908;2022-07-19T01:21:26;3.13;;;1.85;;
45792;SDS011;31495;42.740;22.908;2022-07-19T01:22:26;5.88;;;2.45;;
45792;SDS011;31495;42.740;22.908;2022-07-19T01:23:25;3.20;;;1.95;;
45792;SDS011;31495;42.740;22.908;2022-07-19T01:24:25;3.95;;;2.22;;
45792;SDS011;31495;42.740;22.908;2022-07-19T01:25:25;4.40;;;2.47;;
45792;SDS011;31495;42.740;22.908;2022-07-19T01:26:29;3.22;;;1.95;;
45792;SDS011;31495;42.740;22.908;2022-07-19T01:27:28;9.13;;;2.38;;
45792;SDS011;31495;42.740;22.908;2022-07-19T01:28:28;6.13;;;2.92;;
45792;SDS011;31495;42.740;22.908;2022-07-19T01:29:27;5.13;;;2.30;;
45792;SDS011;31495;42.740;22.908;2022-07-19T01:30:27;3.95;;;2.10;;
45792;SDS011;31495;42.740;22.908;2022-07-19T01:31:27;7.68;;;2.17;;
45792;SDS011;31495;42.740;22.908;2022-07-19T01:32:26;6.38;;;2.10;;
45792;SDS011;31495;42.740;22.908;2022-07-19T01:33:26;6.78;;;2.58;;
45792;SDS011;31495;42.740;22.908;2022-07-19T01:34:25;2.83;;;2.05;;
45792;SDS011;31495;42.740;22.908;2022-07-19T01:35:25;6.95;;;2.50;;
45792;SDS011;31495;42.740;22.908;2022-07-19T01:36:25;4.15;;;2.40;;
45792;SDS011;31495;42.740;22.908;2022-07-19T01:37:24;4.95;;;2.75;;
45792;SDS011;31495;42.740;22.908;2022-07-19T01:38:23;5.65;;;2.65;;
45792;SDS011;31495;42.740;22.908;2022-07-19T01:39:23;5.18;;;1.92;;
45792;SDS011;31495;42.740;22.908;2022-07-19T01:40:22;5.97;;;2.30;;
45792;SDS011;31495;42.740;22.908;2022-07-19T01:41:23;4.97;;;2.30;;
45792;SDS011;31495;42.740;22.908;2022-07-19T01:42:23;6.22;;;2.50;;
45792;SDS011;31495;42.740;22.908;2022-07-19T01:43:22;7.70;;;2.00;;
45792;SDS011;31495;42.740;22.908;2022-07-19T01:44:22;4.55;;;2.33;;
45792;SDS011;31495;42.740;22.908;2022-07-19T01:45:21;3.67;;;2.25;;
45792;SDS011;31495;42.740;22.908;2022-07-19T01:46:20;9.15;;;2.83;;
45792;SDS011;31495;42.740;22.908;2022-07-19T01:47:20;8.95;;;3.03;;
45792;SDS011;31495;42.740;22.908;2022-07-19T01:48:20;5.47;;;2.30;;
45792;SDS011;31495;42.740;22.908;2022-07-19T01:49:20;4.57;;;2.40;;
45792;SDS011;31495;42.740;22.908;2022-07-19T01:50:19;7.88;;;2.10;;
45792;SDS011;31495;42.740;22.908;2022-07-19T01:51:19;3.08;;;1.88;;
45792;SDS011;31495;42.740;22.908;2022-07-19T01:52:18;4.13;;;2.25;;
45792;SDS011;31495;42.740;22.908;2022-07-19T01:53:18;6.78;;;2.40;;
45792;SDS011;31495;42.740;22.908;2022-07-19T01:54:17;6.72;;;3.92;;
45792;SDS011;31495;42.740;22.908;2022-07-19T01:55:20;6.50;;;2.22;;
45792;SDS011;31495;42.740;22.908;2022-07-19T01:56:20;4.32;;;2.60;;
45792;SDS011;31495;42.740;22.908;2022-07-19T01:57:19;5.03;;;2.80;;
45792;SDS011;31495;42.740;22.908;2022-07-19T01:58:20;4.40;;;2.00;;
45792;SDS011;31495;42.740;22.908;2022-07-19T01:59:20;5.90;;;2.20;;
45792;SDS011;31495;42.740;22.908;2022-07-19T02:00:19;3.88;;;1.90;;
45792;SDS011;31495;42.740;22.908;2022-07-19T02:01:19;4.93;;;2.08;;
45792;SDS011;31495;42.740;22.908;2022-07-19T02:02:18;5.32;;;2.30;;
45792;SDS011;31495;42.740;22.908;2022-07-19T02:03:17;7.32;;;2.20;;
45792;SDS011;31495;42.740;22.908;2022-07-19T02:04:17;4.95;;;2.53;;
45792;SDS011;31495;42.740;22.908;2022-07-19T02:05:16;8.13;;;2.45;;
45792;SDS011;31495;42.740;22.908;2022-07-19T02:06:16;8.43;;;2.50;;
45792;SDS011;31495;42.740;22.908;2022-07-19T02:07:16;6.05;;;2.42;;
45792;SDS011;31495;42.740;22.908;2022-07-19T02:08:16;3.45;;;2.00;;
45792;SDS011;31495;42.740;22.908;2022-07-19T02:09:16;2.60;;;1.98;;
45792;SDS011;31495;42.740;22.908;2022-07-19T02:10:15;6.03;;;2.63;;
45792;SDS011;31495;42.740;22.908;2022-07-19T02:11:16;4.47;;;2.70;;
45792;SDS011;31495;42.740;22.908;2022-07-19T02:12:34;3.67;;;2.38;;
45792;SDS011;31495;42.740;22.908;2022-07-19T02:13:33;4.10;;;2.70;;
45792;SDS011;31495;42.740;22.908;2022-07-19T02:14:33;4.00;;;2.20;;
45792;SDS011;31495;42.740;22.908;2022-07-19T02:15:32;6.75;;;2.28;;
45792;SDS011;31495;42.740;22.908;2022-07-19T02:16:32;4.50;;;2.25;;
45792;SDS011;31495;42.740;22.908;2022-07-19T02:17:33;4.68;;;2.55;;
45792;SDS011;31495;42.740;22.908;2022-07-19T02:18:32;5.32;;;2.78;;
45792;SDS011;31495;42.740;22.908;2022-07-19T02:19:31;2.83;;;2.15;;
45792;SDS011;31495;42.740;22.908;2022-07-19T02:20:31;4.38;;;2.58;;
45792;SDS011;31495;42.740;22.908;2022-07-19T02:21:30;3.45;;;2.13;;
45792;SDS011;31495;42.740;22.908;2022-07-19T02:22:30;4.65;;;2.90;;
45792;SDS011;31495;42.740;22.908;2022-07-19T02:23:30;4.82;;;2.70;;
45792;SDS011;31495;42.740;22.908;2022-07-19T02:24:29;3.30;;;2.55;;
45792;SDS011;31495;42.740;22.908;2022-07-19T02:25:28;4.50;;;2.78;;
45792;SDS011;31495;42.740;22.908;2022-07-19T02:26:28;4.32;;;2.10;;
45792;SDS011;31495;42.740;22.908;2022-07-19T02:27:27;6.85;;;2.88;;
45792;SDS011;31495;42.740;22.908;2022-07-19T02:28:28;7.00;;;2.58;;
45792;SDS011;31495;42.740;22.908;2022-07-19T02:29:27;5.97;;;3.00;;
45792;SDS011;31495;42.740;22.908;2022-07-19T02:30:26;4.85;;;2.70;;
45792;SDS011;31495;42.740;22.908;2022-07-19T02:31:26;6.30;;;2.40;;
45792;SDS011;31495;42.740;22.908;2022-07-19T02:32:26;3.70;;;2.35;;
45792;SDS011;31495;42.740;22.908;2022-07-19T02:33:25;5.47;;;2.85;;
45792;SDS011;31495;42.740;22.908;2022-07-19T02:34:25;6.60;;;2.33;;
45792;SDS011;31495;42.740;22.908;2022-07-19T02:35:24;3.83;;;2.03;;
45792;SDS011;31495;42.740;22.908;2022-07-19T02:36:24;6.72;;;1.92;;
45792;SDS011;31495;42.740;22.908;2022-07-19T02:37:24;4.68;;;2.65;;
45792;SDS011;31495;42.740;22.908;2022-07-19T02:38:24;3.95;;;1.95;;
45792;SDS011;31495;42.740;22.908;2022-07-19T02:39:23;5.20;;;2.60;;
45792;SDS011;31495;42.740;22.908;2022-07-19T02:40:22;7.00;;;2.88;;
45792;SDS011;31495;42.740;22.908;2022-07-19T02:41:22;3.63;;;1.85;;
45792;SDS011;31495;42.740;22.908;2022-07-19T02:42:22;2.28;;;2.00;;
45792;SDS011;31495;42.740;22.908;2022-07-19T02:43:21;3.42;;;2.50;;
45792;SDS011;31495;42.740;22.908;2022-07-19T02:44:21;4.90;;;2.47;;
45792;SDS011;31495;42.740;22.908;2022-07-19T02:45:20;5.50;;;2.88;;
45792;SDS011;31495;42.740;22.908;2022-07-19T02:46:19;2.92;;;2.42;;
45792;SDS011;31495;42.740;22.908;2022-07-19T02:47:19;6.63;;;2.35;;
45792;SDS011;31495;42.740;22.908;2022-07-19T02:48:18;6.25;;;3.10;;
45792;SDS011;31495;42.740;22.908;2022-07-19T02:49:18;9.27;;;2.47;;
45792;SDS011;31495;42.740;22.908;2022-07-19T02:50:17;4.22;;;2.47;;
45792;SDS011;31495;42.740;22.908;2022-07-19T02:51:17;5.88;;;2.35;;
45792;SDS011;31495;42.740;22.908;2022-07-19T02:52:16;6.15;;;2.58;;
45792;SDS011;31495;42.740;22.908;2022-07-19T02:53:16;3.55;;;2.15;;
45792;SDS011;31495;42.740;22.908;2022-07-19T02:54:15;4.43;;;2.80;;
45792;SDS011;31495;42.740;22.908;2022-07-19T02:55:15;5.63;;;2.67;;
45792;SDS011;31495;42.740;22.908;2022-07-19T02:56:14;4.75;;;2.85;;
45792;SDS011;31495;42.740;22.908;2022-07-19T02:57:14;6.68;;;2.80;;
45792;SDS011;31495;42.740;22.908;2022-07-19T02:58:13;4.13;;;2.45;;
45792;SDS011;31495;42.740;22.908;2022-07-19T02:59:13;4.47;;;2.63;;
45792;SDS011;31495;42.740;22.908;2022-07-19T03:00:13;5.18;;;2.17;;
45792;SDS011;31495;42.740;22.908;2022-07-19T03:01:12;3.60;;;2.22;;
45792;SDS011;31495;42.740;22.908;2022-07-19T03:02:12;9.25;;;2.60;;
45792;SDS011;31495;42.740;22.908;2022-07-19T03:03:12;3.03;;;2.35;;
45792;SDS011;31495;42.740;22.908;2022-07-19T03:04:30;6.55;;;2.80;;
45792;SDS011;31495;42.740;22.908;2022-07-19T03:05:30;6.20;;;3.10;;
45792;SDS011;31495;42.740;22.908;2022-07-19T03:06:30;3.00;;;2.20;;
45792;SDS011;31495;42.740;22.908;2022-07-19T03:07:30;4.55;;;2.95;;
45792;SDS011;31495;42.740;22.908;2022-07-19T03:08:29;3.58;;;2.22;;
45792;SDS011;31495;42.740;22.908;2022-07-19T03:09:29;5.13;;;2.03;;
45792;SDS011;31495;42.740;22.908;2022-07-19T03:10:28;5.13;;;2.50;;
45792;SDS011;31495;42.740;22.908;2022-07-19T03:11:28;3.13;;;2.08;;
45792;SDS011;31495;42.740;22.908;2022-07-19T03:12:27;4.45;;;2.35;;
45792;SDS011;31495;42.740;22.908;2022-07-19T03:13:27;2.88;;;2.33;;
45792;SDS011;31495;42.740;22.908;2022-07-19T03:14:26;4.88;;;2.42;;
45792;SDS011;31495;42.740;22.908;2022-07-19T03:15:27;4.60;;;2.03;;
45792;SDS011;31495;42.740;22.908;2022-07-19T03:16:26;6.60;;;2.35;;
45792;SDS011;31495;42.740;22.908;2022-07-19T03:17:25;3.90;;;2.22;;
45792;SDS011;31495;42.740;22.908;2022-07-19T03:18:25;3.60;;;2.47;;
45792;SDS011;31495;42.740;22.908;2022-07-19T03:19:25;5.43;;;2.53;;
45792;SDS011;31495;42.740;22.908;2022-07-19T03:20:25;3.10;;;2.10;;
45792;SDS011;31495;42.740;22.908;2022-07-19T03:21:25;6.25;;;2.58;;
45792;SDS011;31495;42.740;22.908;2022-07-19T03:22:24;3.20;;;1.90;;
45792;SDS011;31495;42.740;22.908;2022-07-19T03:23:26;4.10;;;2.45;;
45792;SDS011;31495;42.740;22.908;2022-07-19T03:24:29;3.08;;;2.20;;
45792;SDS011;31495;42.740;22.908;2022-07-19T03:25:29;6.80;;;2.90;;
45792;SDS011;31495;42.740;22.908;2022-07-19T03:26:28;5.25;;;2.67;;
45792;SDS011;31495;42.740;22.908;2022-07-19T03:27:28;5.15;;;2.40;;
45792;SDS011;31495;42.740;22.908;2022-07-19T03:28:27;4.75;;;2.83;;
45792;SDS011;31495;42.740;22.908;2022-07-19T03:29:26;4.65;;;2.28;;
45792;SDS011;31495;42.740;22.908;2022-07-19T03:30:26;5.85;;;2.38;;
45792;SDS011;31495;42.740;22.908;2022-07-19T03:31:26;3.03;;;2.30;;
45792;SDS011;31495;42.740;22.908;2022-07-19T03:32:25;8.43;;;2.17;;
45792;SDS011;31495;42.740;22.908;2022-07-19T03:33:25;8.07;;;2.28;;
45792;SDS011;31495;42.740;22.908;2022-07-19T03:34:25;4.45;;;2.50;;
45792;SDS011;31495;42.740;22.908;2022-07-19T03:35:25;5.70;;;2.70;;
45792;SDS011;31495;42.740;22.908;2022-07-19T03:36:24;7.22;;;3.53;;
45792;SDS011;31495;42.740;22.908;2022-07-19T03:37:24;6.45;;;2.13;;
45792;SDS011;31495;42.740;22.908;2022-07-19T03:38:24;7.05;;;2.78;;
45792;SDS011;31495;42.740;22.908;2022-07-19T03:39:23;8.80;;;2.90;;
45792;SDS011;31495;42.740;22.908;2022-07-19T03:40:22;7.38;;;2.70;;
45792;SDS011;31495;42.740;22.908;2022-07-19T03:41:22;8.75;;;2.85;;
45792;SDS011;31495;42.740;22.908;2022-07-19T03:42:21;3.53;;;2.70;;
45792;SDS011;31495;42.740;22.908;2022-07-19T03:43:21;4.78;;;2.90;;
45792;SDS011;31495;42.740;22.908;2022-07-19T03:44:21;5.15;;;2.85;;
45792;SDS011;31495;42.740;22.908;2022-07-19T03:45:21;6.15;;;2.50;;
45792;SDS011;31495;42.740;22.908;2022-07-19T03:46:20;8.70;;;3.08;;
45792;SDS011;31495;42.740;22.908;2022-07-19T03:47:20;4.40;;;2.60;;
45792;SDS011;31495;42.740;22.908;2022-07-19T03:48:19;4.63;;;2.25;;
45792;SDS011;31495;42.740;22.908;2022-07-19T03:49:20;7.05;;;3.20;;
45792;SDS011;31495;42.740;22.908;2022-07-19T03:50:19;4.97;;;2.28;;
45792;SDS011;31495;42.740;22.908;2022-07-19T03:51:19;6.32;;;2.63;;
45792;SDS011;31495;42.740;22.908;2022-07-19T03:52:19;4.80;;;2.30;;
45792;SDS011;31495;42.740;22.908;2022-07-19T03:53:18;4.63;;;2.35;;
45792;SDS011;31495;42.740;22.908;2022-07-19T03:54:18;4.88;;;2.78;;
45792;SDS011;31495;42.740;22.908;2022-07-19T03:55:17;2.97;;;2.05;;
45792;SDS011;31495;42.740;22.908;2022-07-19T03:56:17;3.83;;;2.53;;
45792;SDS011;31495;42.740;22.908;2022-07-19T03:57:19;2.95;;;1.98;;
45792;SDS011;31495;42.740;22.908;2022-07-19T03:58:19;4.97;;;1.88;;
45792;SDS011;31495;42.740;22.908;2022-07-19T03:59:18;4.25;;;2.20;;
45792;SDS011;31495;42.740;22.908;2022-07-19T04:00:17;4.63;;;2.40;;
45792;SDS011;31495;42.740;22.908;2022-07-19T04:01:17;6.95;;;2.90;;
45792;SDS011;31495;42.740;22.908;2022-07-19T04:02:17;2.83;;;1.75;;
45792;SDS011;31495;42.740;22.908;2022-07-19T04:03:16;4.13;;;2.38;;
45792;SDS011;31495;42.740;22.908;2022-07-19T04:04:15;4.47;;;2.45;;
45792;SDS011;31495;42.740;22.908;2022-07-19T04:05:14;6.80;;;2.75;;
45792;SDS011;31495;42.740;22.908;2022-07-19T04:06:14;6.15;;;3.40;;
45792;SDS011;31495;42.740;22.908;2022-07-19T04:07:13;11.80;;;3.88;;
45792;SDS011;31495;42.740;22.908;2022-07-19T04:08:13;4.70;;;2.53;;
45792;SDS011;31495;42.740;22.908;2022-07-19T04:09:13;5.72;;;2.50;;
45792;SDS011;31495;42.740;22.908;2022-07-19T04:10:13;4.70;;;2.33;;
45792;SDS011;31495;42.740;22.908;2022-07-19T04:11:12;8.25;;;3.75;;
45792;SDS011;31495;42.740;22.908;2022-07-19T04:12:12;5.60;;;3.67;;
45792;SDS011;31495;42.740;22.908;2022-07-19T04:13:11;5.55;;;4.10;;
45792;SDS011;31495;42.740;22.908;2022-07-19T04:14:10;9.15;;;4.07;;
45792;SDS011;31495;42.740;22.908;2022-07-19T04:15:10;6.65;;;4.38;;
45792;SDS011;31495;42.740;22.908;2022-07-19T04:16:09;9.00;;;4.30;;
45792;SDS011;31495;42.740;22.908;2022-07-19T04:17:09;5.60;;;3.78;;
45792;SDS011;31495;42.740;22.908;2022-07-19T04:18:08;5.15;;;3.80;;
45792;SDS011;31495;42.740;22.908;2022-07-19T04:19:08;6.18;;;4.38;;
45792;SDS011;31495;42.740;22.908;2022-07-19T04:20:07;9.55;;;4.45;;
45792;SDS011;31495;42.740;22.908;2022-07-19T04:21:07;6.97;;;5.13;;
45792;SDS011;31495;42.740;22.908;2022-07-19T04:22:06;17.95;;;5.78;;
45792;SDS011;31495;42.740;22.908;2022-07-19T04:23:06;8.98;;;5.47;;
45792;SDS011;31495;42.740;22.908;2022-07-19T04:24:06;10.43;;;5.85;;
45792;SDS011;31495;42.740;22.908;2022-07-19T04:25:05;8.05;;;6.03;;
45792;SDS011;31495;42.740;22.908;2022-07-19T04:26:05;11.02;;;7.43;;
45792;SDS011;31495;42.740;22.908;2022-07-19T04:27:04;13.93;;;8.00;;
45792;SDS011;31495;42.740;22.908;2022-07-19T04:28:04;17.02;;;8.45;;
45792;SDS011;31495;42.740;22.908;2022-07-19T04:29:05;9.75;;;7.22;;
45792;SDS011;31495;42.740;22.908;2022-07-19T04:30:04;15.98;;;6.65;;
45792;SDS011;31495;42.740;22.908;2022-07-19T04:31:04;11.82;;;6.82;;
45792;SDS011;31495;42.740;22.908;2022-07-19T04:32:04;12.35;;;7.28;;
45792;SDS011;31495;42.740;22.908;2022-07-19T04:33:04;8.00;;;5.88;;
45792;SDS011;31495;42.740;22.908;2022-07-19T04:34:04;12.27;;;6.60;;
45792;SDS011;31495;42.740;22.908;2022-07-19T04:35:05;8.27;;;6.28;;
45792;SDS011;31495;42.740;22.908;2022-07-19T04:36:06;12.38;;;5.60;;
45792;SDS011;31495;42.740;22.908;2022-07-19T04:37:06;11.48;;;5.78;;
45792;SDS011;31495;42.740;22.908;2022-07-19T04:38:05;13.35;;;6.18;;
45792;SDS011;31495;42.740;22.908;2022-07-19T04:39:05;11.68;;;5.22;;
45792;SDS011;31495;42.740;22.908;2022-07-19T04:40:04;9.32;;;4.65;;
45792;SDS011;31495;42.740;22.908;2022-07-19T04:41:05;9.20;;;5.23;;
45792;SDS011;31495;42.740;22.908;2022-07-19T04:42:04;12.90;;;5.20;;
45792;SDS011;31495;42.740;22.908;2022-07-19T04:43:04;11.93;;;5.90;;
45792;SDS011;31495;42.740;22.908;2022-07-19T04:44:04;11.48;;;5.53;;
45792;SDS011;31495;42.740;22.908;2022-07-19T04:45:03;13.15;;;5.57;;
45792;SDS011;31495;42.740;22.908;2022-07-19T04:46:04;9.73;;;4.90;;
45792;SDS011;31495;42.740;22.908;2022-07-19T04:47:03;11.57;;;5.00;;
45792;SDS011;31495;42.740;22.908;2022-07-19T04:48:03;9.40;;;4.38;;
45792;SDS011;31495;42.740;22.908;2022-07-19T04:49:03;12.50;;;4.35;;
45792;SDS011;31495;42.740;22.908;2022-07-19T04:50:02;11.30;;;4.22;;
45792;SDS011;31495;42.740;22.908;2022-07-19T04:51:02;15.10;;;4.50;;
45792;SDS011;31495;42.740;22.908;2022-07-19T04:52:02;7.22;;;3.90;;
45792;SDS011;31495;42.740;22.908;2022-07-19T04:53:02;10.50;;;3.78;;
45792;SDS011;31495;42.740;22.908;2022-07-19T04:54:01;8.30;;;3.75;;
45792;SDS011;31495;42.740;22.908;2022-07-19T04:55:01;3.80;;;2.50;;
45792;SDS011;31495;42.740;22.908;2022-07-19T04:56:01;7.45;;;2.70;;
45792;SDS011;31495;42.740;22.908;2022-07-19T04:57:01;5.78;;;2.80;;
45792;SDS011;31495;42.740;22.908;2022-07-19T04:58:00;5.00;;;3.72;;
45792;SDS011;31495;42.740;22.908;2022-07-19T04:59:00;9.27;;;4.30;;
45792;SDS011;31495;42.740;22.908;2022-07-19T04:59:59;3.92;;;2.85;;
45792;SDS011;31495;42.740;22.908;2022-07-19T05:00:59;3.08;;;1.83;;
45792;SDS011;31495;42.740;22.908;2022-07-19T05:01:58;2.70;;;2.05;;
45792;SDS011;31495;42.740;22.908;2022-07-19T05:02:57;3.88;;;1.98;;
45792;SDS011;31495;42.740;22.908;2022-07-19T05:03:58;3.72;;;2.20;;
45792;SDS011;31495;42.740;22.908;2022-07-19T05:04:58;4.13;;;2.03;;
45792;SDS011;31495;42.740;22.908;2022-07-19T05:05:57;5.68;;;2.97;;
45792;SDS011;31495;42.740;22.908;2022-07-19T05:06:56;3.03;;;1.88;;
45792;SDS011;31495;42.740;22.908;2022-07-19T05:07:56;4.05;;;1.88;;
45792;SDS011;31495;42.740;22.908;2022-07-19T05:08:55;3.53;;;1.92;;
45792;SDS011;31495;42.740;22.908;2022-07-19T05:09:55;7.57;;;2.50;;
45792;SDS011;31495;42.740;22.908;2022-07-19T05:10:55;3.65;;;2.03;;
45792;SDS011;31495;42.740;22.908;2022-07-19T05:11:54;7.50;;;2.17;;
45792;SDS011;31495;42.740;22.908;2022-07-19T05:12:54;2.85;;;1.70;;
45792;SDS011;31495;42.740;22.908;2022-07-19T05:13:54;4.07;;;1.98;;
45792;SDS011;31495;42.740;22.908;2022-07-19T05:14:53;11.00;;;2.35;;
45792;SDS011;31495;42.740;22.908;2022-07-19T05:15:53;6.95;;;2.58;;
45792;SDS011;31495;42.740;22.908;2022-07-19T05:16:52;7.10;;;2.25;;
45792;SDS011;31495;42.740;22.908;2022-07-19T05:17:52;4.85;;;1.80;;
45792;SDS011;31495;42.740;22.908;2022-07-19T05:18:51;3.65;;;1.95;;
45792;SDS011;31495;42.740;22.908;2022-07-19T05:19:51;5.82;;;1.67;;
45792;SDS011;31495;42.740;22.908;2022-07-19T05:20:51;3.78;;;1.73;;
45792;SDS011;31495;42.740;22.908;2022-07-19T05:21:50;6.63;;;2.20;;
45792;SDS011;31495;42.740;22.908;2022-07-19T05:22:50;4.30;;;2.10;;
45792;SDS011;31495;42.740;22.908;2022-07-19T05:23:49;2.08;;;1.30;;
45792;SDS011;31495;42.740;22.908;2022-07-19T05:24:49;9.07;;;1.92;;
45792;SDS011;31495;42.740;22.908;2022-07-19T05:25:49;3.47;;;1.67;;
45792;SDS011;31495;42.740;22.908;2022-07-19T05:26:49;6.10;;;2.00;;
45792;SDS011;31495;42.740;22.908;2022-07-19T05:27:48;3.42;;;1.65;;
45792;SDS011;31495;42.740;22.908;2022-07-19T05:28:49;5.32;;;1.85;;
45792;SDS011;31495;42.740;22.908;2022-07-19T05:29:48;2.17;;;1.77;;
45792;SDS011;31495;42.740;22.908;2022-07-19T05:30:48;4.80;;;2.22;;
45792;SDS011;31495;42.740;22.908;2022-07-19T05:31:47;2.33;;;1.50;;
45792;SDS011;31495;42.740;22.908;2022-07-19T05:32:46;3.35;;;1.80;;
45792;SDS011;31495;42.740;22.908;2022-07-19T05:33:46;3.13;;;1.88;;
45792;SDS011;31495;42.740;22.908;2022-07-19T05:34:45;6.00;;;2.00;;
45792;SDS011;31495;42.740;22.908;2022-07-19T05:35:44;10.90;;;2.67;;
45792;SDS011;31495;42.740;22.908;2022-07-19T05:36:44;6.22;;;2.10;;
45792;SDS011;31495;42.740;22.908;2022-07-19T05:37:43;5.50;;;1.83;;
45792;SDS011;31495;42.740;22.908;2022-07-19T05:38:43;4.22;;;1.83;;
45792;SDS011;31495;42.740;22.908;2022-07-19T05:39:42;5.60;;;1.70;;
45792;SDS011;31495;42.740;22.908;2022-07-19T05:40:41;2.90;;;1.92;;
45792;SDS011;31495;42.740;22.908;2022-07-19T05:41:41;7.15;;;1.98;;
45792;SDS011;31495;42.740;22.908;2022-07-19T05:42:41;3.42;;;1.88;;
45792;SDS011;31495;42.740;22.908;2022-07-19T05:43:40;10.40;;;1.58;;
45792;SDS011;31495;42.740;22.908;2022-07-19T05:44:40;2.58;;;1.45;;
45792;SDS011;31495;42.740;22.908;2022-07-19T05:45:39;2.72;;;1.65;;
45792;SDS011;31495;42.740;22.908;2022-07-19T05:46:39;2.17;;;1.40;;
45792;SDS011;31495;42.740;22.908;2022-07-19T05:47:42;3.60;;;1.90;;
45792;SDS011;31495;42.740;22.908;2022-07-19T05:48:41;4.70;;;1.48;;
45792;SDS011;31495;42.740;22.908;2022-07-19T05:49:41;3.78;;;1.80;;
45792;SDS011;31495;42.740;22.908;2022-07-19T05:50:40;2.35;;;1.65;;
45792;SDS011;31495;42.740;22.908;2022-07-19T05:51:40;3.38;;;1.65;;
45792;SDS011;31495;42.740;22.908;2022-07-19T05:52:40;3.38;;;1.60;;
45792;SDS011;31495;42.740;22.908;2022-07-19T05:53:39;7.53;;;2.05;;
45792;SDS011;31495;42.740;22.908;2022-07-19T05:54:39;4.25;;;1.98;;
45792;SDS011;31495;42.740;22.908;2022-07-19T05:55:38;5.60;;;1.83;;